sensor_id;sensor_type;location;lat;lon;timestamp;P1;durP1;ratioP1;P2;durP2;ratioP2
42294;SDS011;27947;47.556;18.718;2023-07-20T00:01:24;6.65;;;3.00;;
42294;SDS011;27947;47.556;18.718;2023-07-20T00:03:49;5.57;;;2.72;;
42294;SDS011;27947;47.556;18.718;2023-07-20T00:06:20;6.32;;;2.75;;
42294;SDS011;27947;47.556;18.718;2023-07-20T00:08:46;9.05;;;3.45;;
42294;SDS011;27947;47.556;18.718;2023-07-20T00:11:11;6.43;;;2.88;;
42294;SDS011;27947;47.556;18.718;2023-07-20T00:13:38;9.57;;;2.88;;
42294;SDS011;27947;47.556;18.718;2023-07-20T00:16:04;7.22;;;2.53;;
42294;SDS011;27947;47.556;18.718;2023-07-20T00:18:29;5.10;;;2.95;;
42294;SDS011;27947;47.556;18.718;2023-07-20T00:20:54;6.75;;;2.90;;
42294;SDS011;27947;47.556;18.718;2023-07-20T00:23:20;8.98;;;3.20;;
42294;SDS011;27947;47.556;18.718;2023-07-20T00:25:47;6.25;;;2.97;;
42294;SDS011;27947;47.556;18.718;2023-07-20T00:28:13;5.25;;;2.72;;
42294;SDS011;27947;47.556;18.718;2023-07-20T00:30:38;6.63;;;2.65;;
42294;SDS011;27947;47.556;18.718;2023-07-20T00:33:04;4.63;;;2.70;;
42294;SDS011;27947;47.556;18.718;2023-07-20T00:35:29;13.93;;;4.45;;
42294;SDS011;27947;47.556;18.718;2023-07-20T00:37:55;4.75;;;2.90;;
42294;SDS011;27947;47.556;18.718;2023-07-20T00:40:20;6.35;;;2.80;;
42294;SDS011;27947;47.556;18.718;2023-07-20T00:42:46;6.05;;;3.40;;
42294;SDS011;27947;47.556;18.718;2023-07-20T00:45:11;5.40;;;2.95;;
42294;SDS011;27947;47.556;18.718;2023-07-20T00:47:36;7.25;;;2.72;;
42294;SDS011;27947;47.556;18.718;2023-07-20T00:50:02;5.20;;;3.28;;
42294;SDS011;27947;47.556;18.718;2023-07-20T00:52:30;7.90;;;2.95;;
42294;SDS011;27947;47.556;18.718;2023-07-20T00:54:56;6.18;;;2.60;;
42294;SDS011;27947;47.556;18.718;2023-07-20T00:57:21;5.03;;;2.80;;
42294;SDS011;27947;47.556;18.718;2023-07-20T00:59:48;6.22;;;3.08;;
42294;SDS011;27947;47.556;18.718;2023-07-20T01:02:14;8.50;;;2.80;;
42294;SDS011;27947;47.556;18.718;2023-07-20T01:04:39;5.80;;;2.90;;
42294;SDS011;27947;47.556;18.718;2023-07-20T01:07:26;6.90;;;3.10;;
42294;SDS011;27947;47.556;18.718;2023-07-20T01:12:46;10.10;;;2.97;;
42294;SDS011;27947;47.556;18.718;2023-07-20T01:15:12;6.15;;;3.17;;
42294;SDS011;27947;47.556;18.718;2023-07-20T01:17:37;5.72;;;3.05;;
42294;SDS011;27947;47.556;18.718;2023-07-20T01:20:05;8.48;;;3.00;;
42294;SDS011;27947;47.556;18.718;2023-07-20T01:22:52;6.43;;;2.78;;
42294;SDS011;27947;47.556;18.718;2023-07-20T01:32:55;6.15;;;2.90;;
42294;SDS011;27947;47.556;18.718;2023-07-20T01:35:23;6.30;;;2.28;;
42294;SDS011;27947;47.556;18.718;2023-07-20T01:37:48;8.63;;;2.90;;
42294;SDS011;27947;47.556;18.718;2023-07-20T01:40:14;5.95;;;2.90;;
42294;SDS011;27947;47.556;18.718;2023-07-20T01:42:43;7.13;;;3.28;;
42294;SDS011;27947;47.556;18.718;2023-07-20T01:45:09;6.35;;;3.00;;
42294;SDS011;27947;47.556;18.718;2023-07-20T01:47:34;7.53;;;2.67;;
42294;SDS011;27947;47.556;18.718;2023-07-20T01:50:00;4.05;;;2.65;;
42294;SDS011;27947;47.556;18.718;2023-07-20T01:52:25;7.57;;;2.88;;
42294;SDS011;27947;47.556;18.718;2023-07-20T01:54:50;5.70;;;2.67;;
42294;SDS011;27947;47.556;18.718;2023-07-20T01:57:16;4.18;;;2.58;;
42294;SDS011;27947;47.556;18.718;2023-07-20T01:59:41;7.78;;;2.60;;
42294;SDS011;27947;47.556;18.718;2023-07-20T02:02:07;5.40;;;2.70;;
42294;SDS011;27947;47.556;18.718;2023-07-20T02:04:32;4.40;;;2.40;;
42294;SDS011;27947;47.556;18.718;2023-07-20T02:06:57;5.97;;;2.63;;
42294;SDS011;27947;47.556;18.718;2023-07-20T02:09:23;7.28;;;3.47;;
42294;SDS011;27947;47.556;18.718;2023-07-20T02:11:48;8.25;;;3.00;;
42294;SDS011;27947;47.556;18.718;2023-07-20T02:14:13;5.35;;;2.72;;
42294;SDS011;27947;47.556;18.718;2023-07-20T02:16:39;4.15;;;2.95;;
42294;SDS011;27947;47.556;18.718;2023-07-20T02:19:04;4.25;;;2.60;;
42294;SDS011;27947;47.556;18.718;2023-07-20T02:21:32;7.80;;;2.92;;
42294;SDS011;27947;47.556;18.718;2023-07-20T02:23:57;5.55;;;2.85;;
42294;SDS011;27947;47.556;18.718;2023-07-20T02:26:23;6.07;;;2.80;;
42294;SDS011;27947;47.556;18.718;2023-07-20T02:28:48;7.72;;;3.20;;
42294;SDS011;27947;47.556;18.718;2023-07-20T02:31:13;6.68;;;3.10;;
42294;SDS011;27947;47.556;18.718;2023-07-20T02:33:39;6.28;;;3.00;;
42294;SDS011;27947;47.556;18.718;2023-07-20T02:36:04;7.55;;;3.08;;
42294;SDS011;27947;47.556;18.718;2023-07-20T02:38:29;9.57;;;3.28;;
42294;SDS011;27947;47.556;18.718;2023-07-20T02:40:55;4.85;;;2.50;;
42294;SDS011;27947;47.556;18.718;2023-07-20T02:43:20;4.97;;;2.75;;
42294;SDS011;27947;47.556;18.718;2023-07-20T02:45:46;6.65;;;3.20;;
42294;SDS011;27947;47.556;18.718;2023-07-20T02:48:13;7.82;;;3.17;;
42294;SDS011;27947;47.556;18.718;2023-07-20T02:50:39;6.38;;;3.00;;
42294;SDS011;27947;47.556;18.718;2023-07-20T02:53:04;5.15;;;2.90;;
42294;SDS011;27947;47.556;18.718;2023-07-20T02:55:30;6.90;;;3.10;;
42294;SDS011;27947;47.556;18.718;2023-07-20T02:57:55;5.22;;;2.65;;
42294;SDS011;27947;47.556;18.718;2023-07-20T03:00:20;5.50;;;2.78;;
42294;SDS011;27947;47.556;18.718;2023-07-20T03:02:48;8.13;;;2.88;;
42294;SDS011;27947;47.556;18.718;2023-07-20T03:05:14;7.63;;;2.90;;
42294;SDS011;27947;47.556;18.718;2023-07-20T03:07:39;5.70;;;2.95;;
42294;SDS011;27947;47.556;18.718;2023-07-20T03:10:05;7.10;;;3.38;;
42294;SDS011;27947;47.556;18.718;2023-07-20T03:12:34;6.90;;;3.13;;
42294;SDS011;27947;47.556;18.718;2023-07-20T03:14:59;5.50;;;2.75;;
42294;SDS011;27947;47.556;18.718;2023-07-20T03:17:25;6.63;;;3.28;;
42294;SDS011;27947;47.556;18.718;2023-07-20T03:19:50;8.95;;;2.90;;
42294;SDS011;27947;47.556;18.718;2023-07-20T03:22:16;4.25;;;2.88;;
42294;SDS011;27947;47.556;18.718;2023-07-20T03:24:41;11.45;;;3.10;;
42294;SDS011;27947;47.556;18.718;2023-07-20T03:27:06;7.82;;;2.95;;
42294;SDS011;27947;47.556;18.718;2023-07-20T03:29:32;8.70;;;2.80;;
42294;SDS011;27947;47.556;18.718;2023-07-20T03:31:58;4.68;;;2.35;;
42294;SDS011;27947;47.556;18.718;2023-07-20T03:34:24;4.32;;;2.83;;
42294;SDS011;27947;47.556;18.718;2023-07-20T03:36:51;7.82;;;2.92;;
42294;SDS011;27947;47.556;18.718;2023-07-20T03:39:16;5.32;;;2.80;;
42294;SDS011;27947;47.556;18.718;2023-07-20T03:41:41;5.65;;;3.13;;
42294;SDS011;27947;47.556;18.718;2023-07-20T03:44:08;4.85;;;2.40;;
42294;SDS011;27947;47.556;18.718;2023-07-20T03:46:33;8.98;;;2.70;;
42294;SDS011;27947;47.556;18.718;2023-07-20T03:48:59;5.00;;;2.75;;
42294;SDS011;27947;47.556;18.718;2023-07-20T03:51:24;5.70;;;2.92;;
42294;SDS011;27947;47.556;18.718;2023-07-20T03:53:50;5.18;;;2.70;;
42294;SDS011;27947;47.556;18.718;2023-07-20T03:56:15;5.35;;;2.95;;
42294;SDS011;27947;47.556;18.718;2023-07-20T03:58:40;7.10;;;2.92;;
42294;SDS011;27947;47.556;18.718;2023-07-20T04:01:06;4.75;;;2.80;;
42294;SDS011;27947;47.556;18.718;2023-07-20T04:03:32;4.50;;;2.85;;
42294;SDS011;27947;47.556;18.718;2023-07-20T04:05:57;7.28;;;3.22;;
42294;SDS011;27947;47.556;18.718;2023-07-20T04:08:23;6.40;;;2.78;;
42294;SDS011;27947;47.556;18.718;2023-07-20T04:10:49;5.43;;;3.28;;
42294;SDS011;27947;47.556;18.718;2023-07-20T04:13:14;4.13;;;2.67;;
42294;SDS011;27947;47.556;18.718;2023-07-20T04:15:40;6.60;;;2.97;;
42294;SDS011;27947;47.556;18.718;2023-07-20T04:18:07;8.02;;;3.42;;
42294;SDS011;27947;47.556;18.718;2023-07-20T04:20:32;5.30;;;3.22;;
42294;SDS011;27947;47.556;18.718;2023-07-20T04:22:58;7.70;;;3.65;;
42294;SDS011;27947;47.556;18.718;2023-07-20T04:25:24;6.65;;;2.95;;
42294;SDS011;27947;47.556;18.718;2023-07-20T04:27:49;5.85;;;3.58;;
42294;SDS011;27947;47.556;18.718;2023-07-20T04:30:17;4.38;;;3.00;;
42294;SDS011;27947;47.556;18.718;2023-07-20T04:32:45;4.32;;;2.72;;
42294;SDS011;27947;47.556;18.718;2023-07-20T04:35:16;6.25;;;3.05;;
42294;SDS011;27947;47.556;18.718;2023-07-20T04:37:42;7.05;;;3.25;;
42294;SDS011;27947;47.556;18.718;2023-07-20T04:40:15;5.15;;;2.90;;
42294;SDS011;27947;47.556;18.718;2023-07-20T04:42:40;6.13;;;2.80;;
42294;SDS011;27947;47.556;18.718;2023-07-20T04:45:06;7.03;;;3.10;;
42294;SDS011;27947;47.556;18.718;2023-07-20T04:47:32;5.90;;;3.60;;
42294;SDS011;27947;47.556;18.718;2023-07-20T04:49:57;3.75;;;2.75;;
42294;SDS011;27947;47.556;18.718;2023-07-20T04:52:23;5.15;;;3.30;;
42294;SDS011;27947;47.556;18.718;2023-07-20T04:54:48;4.90;;;3.03;;
42294;SDS011;27947;47.556;18.718;2023-07-20T04:57:14;7.57;;;3.08;;
42294;SDS011;27947;47.556;18.718;2023-07-20T04:59:44;5.63;;;2.92;;
42294;SDS011;27947;47.556;18.718;2023-07-20T05:02:09;5.47;;;3.28;;
42294;SDS011;27947;47.556;18.718;2023-07-20T05:04:34;5.00;;;3.25;;
42294;SDS011;27947;47.556;18.718;2023-07-20T05:07:00;4.15;;;2.97;;
42294;SDS011;27947;47.556;18.718;2023-07-20T05:09:26;6.25;;;3.25;;
42294;SDS011;27947;47.556;18.718;2023-07-20T05:11:52;7.57;;;3.35;;
42294;SDS011;27947;47.556;18.718;2023-07-20T05:14:18;5.55;;;3.28;;
42294;SDS011;27947;47.556;18.718;2023-07-20T05:16:44;5.22;;;3.47;;
42294;SDS011;27947;47.556;18.718;2023-07-20T05:19:09;7.38;;;3.20;;
42294;SDS011;27947;47.556;18.718;2023-07-20T05:21:35;3.60;;;2.80;;
42294;SDS011;27947;47.556;18.718;2023-07-20T05:24:00;7.85;;;3.30;;
42294;SDS011;27947;47.556;18.718;2023-07-20T05:26:26;7.47;;;3.67;;
42294;SDS011;27947;47.556;18.718;2023-07-20T05:28:51;10.68;;;3.25;;
42294;SDS011;27947;47.556;18.718;2023-07-20T05:31:16;4.63;;;3.30;;
42294;SDS011;27947;47.556;18.718;2023-07-20T05:33:42;5.72;;;3.78;;
42294;SDS011;27947;47.556;18.718;2023-07-20T05:36:07;6.03;;;3.58;;
42294;SDS011;27947;47.556;18.718;2023-07-20T05:38:32;7.78;;;3.80;;
42294;SDS011;27947;47.556;18.718;2023-07-20T05:41:01;6.45;;;3.20;;
42294;SDS011;27947;47.556;18.718;2023-07-20T05:43:27;7.38;;;3.38;;
42294;SDS011;27947;47.556;18.718;2023-07-20T05:45:52;6.50;;;3.45;;
42294;SDS011;27947;47.556;18.718;2023-07-20T05:48:17;7.20;;;3.50;;
42294;SDS011;27947;47.556;18.718;2023-07-20T05:50:43;8.60;;;3.20;;
42294;SDS011;27947;47.556;18.718;2023-07-20T05:53:11;5.53;;;3.35;;
42294;SDS011;27947;47.556;18.718;2023-07-20T05:55:36;7.32;;;3.65;;
42294;SDS011;27947;47.556;18.718;2023-07-20T05:58:02;5.55;;;3.25;;
42294;SDS011;27947;47.556;18.718;2023-07-20T06:00:29;4.70;;;3.28;;
42294;SDS011;27947;47.556;18.718;2023-07-20T06:02:54;10.57;;;3.50;;
42294;SDS011;27947;47.556;18.718;2023-07-20T06:05:20;6.03;;;3.47;;
42294;SDS011;27947;47.556;18.718;2023-07-20T06:07:46;6.38;;;3.17;;
42294;SDS011;27947;47.556;18.718;2023-07-20T06:10:11;6.07;;;3.90;;
42294;SDS011;27947;47.556;18.718;2023-07-20T06:12:37;5.05;;;3.03;;
42294;SDS011;27947;47.556;18.718;2023-07-20T06:15:02;7.65;;;3.65;;
42294;SDS011;27947;47.556;18.718;2023-07-20T06:17:28;4.78;;;3.20;;
42294;SDS011;27947;47.556;18.718;2023-07-20T06:19:54;4.60;;;2.88;;
42294;SDS011;27947;47.556;18.718;2023-07-20T06:22:20;5.57;;;3.42;;
42294;SDS011;27947;47.556;18.718;2023-07-20T06:24:45;7.63;;;4.13;;
42294;SDS011;27947;47.556;18.718;2023-07-20T06:27:11;11.00;;;3.70;;
42294;SDS011;27947;47.556;18.718;2023-07-20T06:29:37;9.48;;;3.35;;
42294;SDS011;27947;47.556;18.718;2023-07-20T06:32:02;8.48;;;3.97;;
42294;SDS011;27947;47.556;18.718;2023-07-20T06:34:28;6.97;;;3.42;;
42294;SDS011;27947;47.556;18.718;2023-07-20T06:36:54;12.23;;;3.40;;
42294;SDS011;27947;47.556;18.718;2023-07-20T06:39:19;6.30;;;3.22;;
42294;SDS011;27947;47.556;18.718;2023-07-20T06:41:45;7.13;;;3.28;;
42294;SDS011;27947;47.556;18.718;2023-07-20T06:44:10;7.72;;;3.67;;
42294;SDS011;27947;47.556;18.718;2023-07-20T06:46:36;6.45;;;3.30;;
42294;SDS011;27947;47.556;18.718;2023-07-20T06:49:02;8.13;;;3.25;;
42294;SDS011;27947;47.556;18.718;2023-07-20T06:51:27;6.95;;;3.00;;
42294;SDS011;27947;47.556;18.718;2023-07-20T06:53:52;7.85;;;3.22;;
42294;SDS011;27947;47.556;18.718;2023-07-20T06:56:18;6.45;;;3.17;;
42294;SDS011;27947;47.556;18.718;2023-07-20T06:58:43;7.53;;;3.17;;
42294;SDS011;27947;47.556;18.718;2023-07-20T07:01:08;8.98;;;3.17;;
42294;SDS011;27947;47.556;18.718;2023-07-20T07:03:34;11.45;;;4.07;;
42294;SDS011;27947;47.556;18.718;2023-07-20T07:06:00;12.20;;;3.03;;
42294;SDS011;27947;47.556;18.718;2023-07-20T07:08:25;17.30;;;4.72;;
42294;SDS011;27947;47.556;18.718;2023-07-20T07:10:51;5.35;;;3.15;;
42294;SDS011;27947;47.556;18.718;2023-07-20T07:13:17;10.35;;;3.28;;
42294;SDS011;27947;47.556;18.718;2023-07-20T07:15:42;14.60;;;3.88;;
42294;SDS011;27947;47.556;18.718;2023-07-20T07:18:08;8.00;;;3.42;;
42294;SDS011;27947;47.556;18.718;2023-07-20T07:20:33;10.95;;;2.85;;
42294;SDS011;27947;47.556;18.718;2023-07-20T07:22:58;8.30;;;3.10;;
42294;SDS011;27947;47.556;18.718;2023-07-20T07:25:24;24.65;;;3.75;;
42294;SDS011;27947;47.556;18.718;2023-07-20T07:27:49;14.10;;;2.85;;
42294;SDS011;27947;47.556;18.718;2023-07-20T07:30:15;5.47;;;2.65;;
42294;SDS011;27947;47.556;18.718;2023-07-20T07:32:40;16.88;;;3.35;;
42294;SDS011;27947;47.556;18.718;2023-07-20T07:35:06;9.77;;;3.47;;
42294;SDS011;27947;47.556;18.718;2023-07-20T07:37:32;10.80;;;3.53;;
42294;SDS011;27947;47.556;18.718;2023-07-20T07:39:57;33.78;;;4.78;;
42294;SDS011;27947;47.556;18.718;2023-07-20T07:42:22;14.15;;;2.95;;
42294;SDS011;27947;47.556;18.718;2023-07-20T07:44:48;8.60;;;2.42;;
42294;SDS011;27947;47.556;18.718;2023-07-20T07:47:13;8.60;;;2.80;;
42294;SDS011;27947;47.556;18.718;2023-07-20T07:49:39;22.23;;;3.00;;
42294;SDS011;27947;47.556;18.718;2023-07-20T07:52:05;11.23;;;3.08;;
42294;SDS011;27947;47.556;18.718;2023-07-20T07:54:30;39.70;;;4.28;;
42294;SDS011;27947;47.556;18.718;2023-07-20T07:56:56;12.30;;;3.03;;
42294;SDS011;27947;47.556;18.718;2023-07-20T07:59:21;26.50;;;3.47;;
42294;SDS011;27947;47.556;18.718;2023-07-20T08:01:47;17.20;;;3.42;;
42294;SDS011;27947;47.556;18.718;2023-07-20T08:04:12;6.75;;;2.58;;
42294;SDS011;27947;47.556;18.718;2023-07-20T08:06:38;7.57;;;2.72;;
42294;SDS011;27947;47.556;18.718;2023-07-20T08:09:03;7.05;;;2.65;;
42294;SDS011;27947;47.556;18.718;2023-07-20T08:11:29;12.93;;;4.05;;
42294;SDS011;27947;47.556;18.718;2023-07-20T08:13:56;7.75;;;2.58;;
42294;SDS011;27947;47.556;18.718;2023-07-20T08:16:21;7.43;;;2.97;;
42294;SDS011;27947;47.556;18.718;2023-07-20T08:18:46;3.88;;;2.25;;
42294;SDS011;27947;47.556;18.718;2023-07-20T08:21:12;4.05;;;2.33;;
42294;SDS011;27947;47.556;18.718;2023-07-20T08:23:37;14.70;;;3.33;;
42294;SDS011;27947;47.556;18.718;2023-07-20T08:26:03;4.47;;;2.70;;
42294;SDS011;27947;47.556;18.718;2023-07-20T08:28:28;6.47;;;2.50;;
42294;SDS011;27947;47.556;18.718;2023-07-20T08:30:54;9.35;;;2.92;;
42294;SDS011;27947;47.556;18.718;2023-07-20T08:33:19;7.82;;;2.97;;
42294;SDS011;27947;47.556;18.718;2023-07-20T08:35:45;11.77;;;3.75;;
42294;SDS011;27947;47.556;18.718;2023-07-20T08:38:10;16.75;;;3.67;;
42294;SDS011;27947;47.556;18.718;2023-07-20T08:40:40;5.40;;;2.30;;
42294;SDS011;27947;47.556;18.718;2023-07-20T08:43:05;4.60;;;2.13;;
42294;SDS011;27947;47.556;18.718;2023-07-20T08:45:32;5.18;;;2.55;;
42294;SDS011;27947;47.556;18.718;2023-07-20T08:47:58;7.93;;;3.17;;
42294;SDS011;27947;47.556;18.718;2023-07-20T08:50:24;5.72;;;2.25;;
42294;SDS011;27947;47.556;18.718;2023-07-20T08:52:50;7.13;;;2.70;;
42294;SDS011;27947;47.556;18.718;2023-07-20T08:55:17;3.90;;;2.33;;
42294;SDS011;27947;47.556;18.718;2023-07-20T08:57:44;7.75;;;2.90;;
42294;SDS011;27947;47.556;18.718;2023-07-20T09:00:11;8.50;;;2.70;;
42294;SDS011;27947;47.556;18.718;2023-07-20T09:02:39;4.38;;;2.30;;
42294;SDS011;27947;47.556;18.718;2023-07-20T09:05:07;7.53;;;2.28;;
42294;SDS011;27947;47.556;18.718;2023-07-20T09:07:32;6.20;;;2.40;;
42294;SDS011;27947;47.556;18.718;2023-07-20T09:09:58;5.28;;;2.22;;
42294;SDS011;27947;47.556;18.718;2023-07-20T09:12:24;3.13;;;2.15;;
42294;SDS011;27947;47.556;18.718;2023-07-20T09:14:49;3.42;;;1.90;;
42294;SDS011;27947;47.556;18.718;2023-07-20T09:17:14;3.33;;;2.30;;
42294;SDS011;27947;47.556;18.718;2023-07-20T09:19:47;6.20;;;2.38;;
42294;SDS011;27947;47.556;18.718;2023-07-20T09:22:12;6.85;;;2.35;;
42294;SDS011;27947;47.556;18.718;2023-07-20T09:24:37;6.43;;;2.35;;
42294;SDS011;27947;47.556;18.718;2023-07-20T09:27:03;6.90;;;2.63;;
42294;SDS011;27947;47.556;18.718;2023-07-20T09:29:31;4.18;;;2.30;;
42294;SDS011;27947;47.556;18.718;2023-07-20T09:32:00;6.28;;;2.53;;
42294;SDS011;27947;47.556;18.718;2023-07-20T09:34:26;4.88;;;2.45;;
42294;SDS011;27947;47.556;18.718;2023-07-20T09:36:52;3.88;;;2.30;;
42294;SDS011;27947;47.556;18.718;2023-07-20T09:39:17;4.25;;;2.08;;
42294;SDS011;27947;47.556;18.718;2023-07-20T09:41:43;6.85;;;2.70;;
42294;SDS011;27947;47.556;18.718;2023-07-20T09:44:08;4.65;;;2.60;;
42294;SDS011;27947;47.556;18.718;2023-07-20T09:46:42;4.90;;;2.67;;
42294;SDS011;27947;47.556;18.718;2023-07-20T09:49:08;6.65;;;2.58;;
42294;SDS011;27947;47.556;18.718;2023-07-20T09:51:33;5.78;;;2.50;;
42294;SDS011;27947;47.556;18.718;2023-07-20T09:53:59;3.33;;;2.05;;
42294;SDS011;27947;47.556;18.718;2023-07-20T09:56:24;5.55;;;2.22;;
42294;SDS011;27947;47.556;18.718;2023-07-20T09:58:50;3.58;;;2.20;;
42294;SDS011;27947;47.556;18.718;2023-07-20T10:01:17;6.95;;;2.25;;
42294;SDS011;27947;47.556;18.718;2023-07-20T10:03:43;5.35;;;2.20;;
42294;SDS011;27947;47.556;18.718;2023-07-20T10:06:10;3.63;;;2.25;;
42294;SDS011;27947;47.556;18.718;2023-07-20T10:08:41;5.18;;;2.80;;
42294;SDS011;27947;47.556;18.718;2023-07-20T10:11:07;4.70;;;2.20;;
42294;SDS011;27947;47.556;18.718;2023-07-20T10:13:32;6.28;;;2.63;;
42294;SDS011;27947;47.556;18.718;2023-07-20T10:16:03;6.85;;;2.33;;
42294;SDS011;27947;47.556;18.718;2023-07-20T10:18:32;3.10;;;2.10;;
42294;SDS011;27947;47.556;18.718;2023-07-20T10:21:00;4.00;;;2.40;;
42294;SDS011;27947;47.556;18.718;2023-07-20T10:23:26;5.53;;;1.80;;
42294;SDS011;27947;47.556;18.718;2023-07-20T10:25:52;5.22;;;2.53;;
42294;SDS011;27947;47.556;18.718;2023-07-20T10:28:17;3.75;;;1.90;;
42294;SDS011;27947;47.556;18.718;2023-07-20T10:30:42;5.15;;;2.00;;
42294;SDS011;27947;47.556;18.718;2023-07-20T10:33:08;8.02;;;2.53;;
42294;SDS011;27947;47.556;18.718;2023-07-20T10:38:18;4.82;;;1.95;;
42294;SDS011;27947;47.556;18.718;2023-07-20T10:40:43;6.03;;;2.00;;
42294;SDS011;27947;47.556;18.718;2023-07-20T10:43:18;5.25;;;2.15;;
42294;SDS011;27947;47.556;18.718;2023-07-20T10:45:53;4.82;;;1.98;;
42294;SDS011;27947;47.556;18.718;2023-07-20T10:48:19;4.60;;;2.00;;
42294;SDS011;27947;47.556;18.718;2023-07-20T10:50:45;5.65;;;2.33;;
42294;SDS011;27947;47.556;18.718;2023-07-20T10:53:15;5.82;;;2.38;;
42294;SDS011;27947;47.556;18.718;2023-07-20T10:55:41;2.92;;;1.67;;
42294;SDS011;27947;47.556;18.718;2023-07-20T10:58:07;6.85;;;2.42;;
42294;SDS011;27947;47.556;18.718;2023-07-20T11:00:33;4.57;;;2.10;;
42294;SDS011;27947;47.556;18.718;2023-07-20T11:02:59;5.28;;;2.15;;
42294;SDS011;27947;47.556;18.718;2023-07-20T11:05:38;3.47;;;1.95;;
42294;SDS011;27947;47.556;18.718;2023-07-20T11:08:05;8.23;;;2.58;;
42294;SDS011;27947;47.556;18.718;2023-07-20T11:10:30;9.50;;;2.50;;
42294;SDS011;27947;47.556;18.718;2023-07-20T11:18:26;6.05;;;2.55;;
42294;SDS011;27947;47.556;18.718;2023-07-20T11:20:52;4.18;;;2.15;;
42294;SDS011;27947;47.556;18.718;2023-07-20T11:23:19;5.55;;;2.35;;
42294;SDS011;27947;47.556;18.718;2023-07-20T11:25:44;5.13;;;2.30;;
42294;SDS011;27947;47.556;18.718;2023-07-20T11:28:10;5.72;;;2.03;;
42294;SDS011;27947;47.556;18.718;2023-07-20T11:30:36;9.68;;;2.10;;
42294;SDS011;27947;47.556;18.718;2023-07-20T11:33:01;7.70;;;1.90;;
42294;SDS011;27947;47.556;18.718;2023-07-20T11:35:27;5.57;;;2.28;;
42294;SDS011;27947;47.556;18.718;2023-07-20T11:37:52;5.47;;;2.20;;
42294;SDS011;27947;47.556;18.718;2023-07-20T11:40:18;9.48;;;2.20;;
42294;SDS011;27947;47.556;18.718;2023-07-20T11:42:43;5.53;;;2.28;;
42294;SDS011;27947;47.556;18.718;2023-07-20T11:45:09;4.75;;;1.70;;
42294;SDS011;27947;47.556;18.718;2023-07-20T11:47:34;4.38;;;2.03;;
42294;SDS011;27947;47.556;18.718;2023-07-20T11:50:05;4.55;;;2.00;;
42294;SDS011;27947;47.556;18.718;2023-07-20T11:52:30;4.32;;;2.30;;
42294;SDS011;27947;47.556;18.718;2023-07-20T11:54:56;4.22;;;2.45;;
42294;SDS011;27947;47.556;18.718;2023-07-20T11:57:22;5.95;;;2.30;;
42294;SDS011;27947;47.556;18.718;2023-07-20T11:59:54;5.25;;;2.33;;
42294;SDS011;27947;47.556;18.718;2023-07-20T12:02:24;8.52;;;2.00;;
42294;SDS011;27947;47.556;18.718;2023-07-20T12:04:51;3.92;;;2.03;;
42294;SDS011;27947;47.556;18.718;2023-07-20T12:07:18;4.88;;;2.15;;
42294;SDS011;27947;47.556;18.718;2023-07-20T12:09:43;5.15;;;2.20;;
42294;SDS011;27947;47.556;18.718;2023-07-20T12:12:09;4.93;;;2.38;;
42294;SDS011;27947;47.556;18.718;2023-07-20T12:14:35;4.15;;;2.47;;
42294;SDS011;27947;47.556;18.718;2023-07-20T12:17:00;6.05;;;2.38;;
42294;SDS011;27947;47.556;18.718;2023-07-20T12:19:26;3.55;;;1.80;;
42294;SDS011;27947;47.556;18.718;2023-07-20T12:21:51;6.05;;;2.00;;
42294;SDS011;27947;47.556;18.718;2023-07-20T12:24:22;4.07;;;2.00;;
42294;SDS011;27947;47.556;18.718;2023-07-20T12:26:47;2.85;;;1.83;;
42294;SDS011;27947;47.556;18.718;2023-07-20T12:29:13;7.40;;;1.70;;
42294;SDS011;27947;47.556;18.718;2023-07-20T12:31:38;5.43;;;1.85;;
42294;SDS011;27947;47.556;18.718;2023-07-20T12:34:03;9.38;;;2.05;;
42294;SDS011;27947;47.556;18.718;2023-07-20T12:36:28;8.48;;;1.98;;
42294;SDS011;27947;47.556;18.718;2023-07-20T12:38:54;6.25;;;1.73;;
42294;SDS011;27947;47.556;18.718;2023-07-20T12:41:19;5.80;;;1.83;;
42294;SDS011;27947;47.556;18.718;2023-07-20T12:43:45;17.13;;;2.50;;
42294;SDS011;27947;47.556;18.718;2023-07-20T12:46:11;4.68;;;1.67;;
42294;SDS011;27947;47.556;18.718;2023-07-20T12:48:40;3.05;;;1.60;;
42294;SDS011;27947;47.556;18.718;2023-07-20T12:51:07;4.18;;;1.92;;
42294;SDS011;27947;47.556;18.718;2023-07-20T12:53:32;4.32;;;1.90;;
42294;SDS011;27947;47.556;18.718;2023-07-20T12:56:01;9.55;;;2.08;;
42294;SDS011;27947;47.556;18.718;2023-07-20T12:58:26;3.58;;;1.77;;
42294;SDS011;27947;47.556;18.718;2023-07-20T13:00:52;2.75;;;1.73;;
42294;SDS011;27947;47.556;18.718;2023-07-20T13:03:18;2.72;;;1.70;;
42294;SDS011;27947;47.556;18.718;2023-07-20T13:05:44;7.15;;;1.70;;
42294;SDS011;27947;47.556;18.718;2023-07-20T13:08:10;4.85;;;1.70;;
42294;SDS011;27947;47.556;18.718;2023-07-20T13:10:36;3.22;;;1.45;;
42294;SDS011;27947;47.556;18.718;2023-07-20T13:13:01;5.00;;;1.73;;
42294;SDS011;27947;47.556;18.718;2023-07-20T13:15:30;3.13;;;1.42;;
42294;SDS011;27947;47.556;18.718;2023-07-20T13:17:57;2.63;;;1.80;;
42294;SDS011;27947;47.556;18.718;2023-07-20T13:20:22;3.15;;;1.70;;
42294;SDS011;27947;47.556;18.718;2023-07-20T13:22:47;3.45;;;1.75;;
42294;SDS011;27947;47.556;18.718;2023-07-20T13:25:13;5.93;;;1.40;;
42294;SDS011;27947;47.556;18.718;2023-07-20T13:27:39;6.85;;;1.70;;
42294;SDS011;27947;47.556;18.718;2023-07-20T13:30:05;3.15;;;1.70;;
42294;SDS011;27947;47.556;18.718;2023-07-20T13:32:36;3.58;;;1.67;;
42294;SDS011;27947;47.556;18.718;2023-07-20T13:35:01;3.40;;;1.77;;
42294;SDS011;27947;47.556;18.718;2023-07-20T13:37:27;5.63;;;1.52;;
42294;SDS011;27947;47.556;18.718;2023-07-20T13:39:53;6.95;;;1.63;;
42294;SDS011;27947;47.556;18.718;2023-07-20T13:42:19;6.00;;;1.67;;
42294;SDS011;27947;47.556;18.718;2023-07-20T13:44:45;4.18;;;1.55;;
42294;SDS011;27947;47.556;18.718;2023-07-20T13:47:11;4.38;;;1.70;;
42294;SDS011;27947;47.556;18.718;2023-07-20T13:49:37;3.97;;;1.75;;
42294;SDS011;27947;47.556;18.718;2023-07-20T13:52:02;2.30;;;1.55;;
42294;SDS011;27947;47.556;18.718;2023-07-20T13:54:27;4.53;;;1.48;;
42294;SDS011;27947;47.556;18.718;2023-07-20T13:56:53;3.00;;;1.80;;
42294;SDS011;27947;47.556;18.718;2023-07-20T13:59:18;2.88;;;1.55;;
42294;SDS011;27947;47.556;18.718;2023-07-20T14:01:43;4.07;;;2.15;;
42294;SDS011;27947;47.556;18.718;2023-07-20T14:04:09;3.35;;;1.40;;
42294;SDS011;27947;47.556;18.718;2023-07-20T14:06:34;3.67;;;1.80;;
42294;SDS011;27947;47.556;18.718;2023-07-20T14:09:00;3.45;;;1.60;;
42294;SDS011;27947;47.556;18.718;2023-07-20T14:11:25;3.20;;;1.48;;
42294;SDS011;27947;47.556;18.718;2023-07-20T14:13:51;6.72;;;2.20;;
42294;SDS011;27947;47.556;18.718;2023-07-20T14:16:18;4.88;;;1.80;;
42294;SDS011;27947;47.556;18.718;2023-07-20T14:18:44;2.78;;;1.35;;
42294;SDS011;27947;47.556;18.718;2023-07-20T14:21:12;2.55;;;1.90;;
42294;SDS011;27947;47.556;18.718;2023-07-20T14:23:37;4.00;;;1.70;;
42294;SDS011;27947;47.556;18.718;2023-07-20T14:26:03;4.20;;;1.70;;
42294;SDS011;27947;47.556;18.718;2023-07-20T14:28:30;4.97;;;1.70;;
42294;SDS011;27947;47.556;18.718;2023-07-20T14:30:55;6.40;;;1.60;;
42294;SDS011;27947;47.556;18.718;2023-07-20T14:33:21;3.40;;;1.52;;
42294;SDS011;27947;47.556;18.718;2023-07-20T14:35:47;2.45;;;1.70;;
42294;SDS011;27947;47.556;18.718;2023-07-20T14:38:12;10.35;;;1.75;;
42294;SDS011;27947;47.556;18.718;2023-07-20T14:40:38;2.10;;;1.50;;
42294;SDS011;27947;47.556;18.718;2023-07-20T14:43:03;4.55;;;1.50;;
42294;SDS011;27947;47.556;18.718;2023-07-20T14:45:28;6.75;;;2.10;;